sensor_id;sensor_type;location;lat;lon;timestamp;P1;durP1;ratioP1;P2;durP2;ratioP2
30697;SDS011;17448;47.200;10.902;2023-05-19T00:01:47;9.02;;;4.72;;
30697;SDS011;17448;47.200;10.902;2023-05-19T00:04:14;8.82;;;4.40;;
30697;SDS011;17448;47.200;10.902;2023-05-19T00:06:40;8.90;;;4.40;;
30697;SDS011;17448;47.200;10.902;2023-05-19T00:09:10;6.82;;;4.22;;
30697;SDS011;17448;47.200;10.902;2023-05-19T00:11:37;10.27;;;3.92;;
30697;SDS011;17448;47.200;10.902;2023-05-19T00:14:05;10.13;;;4.68;;
30697;SDS011;17448;47.200;10.902;2023-05-19T00:16:31;7.25;;;4.30;;
30697;SDS011;17448;47.200;10.902;2023-05-19T00:18:58;7.03;;;4.30;;
30697;SDS011;17448;47.200;10.902;2023-05-19T00:21:24;6.65;;;4.40;;
30697;SDS011;17448;47.200;10.902;2023-05-19T00:23:51;7.32;;;4.90;;
30697;SDS011;17448;47.200;10.902;2023-05-19T00:26:17;5.82;;;3.95;;
30697;SDS011;17448;47.200;10.902;2023-05-19T00:28:53;9.60;;;4.50;;
30697;SDS011;17448;47.200;10.902;2023-05-19T00:31:19;6.35;;;4.45;;
30697;SDS011;17448;47.200;10.902;2023-05-19T00:33:45;9.65;;;4.22;;
30697;SDS011;17448;47.200;10.902;2023-05-19T00:36:12;7.90;;;4.32;;
30697;SDS011;17448;47.200;10.902;2023-05-19T00:38:40;8.00;;;4.30;;
30697;SDS011;17448;47.200;10.902;2023-05-19T00:41:07;6.53;;;4.45;;
30697;SDS011;17448;47.200;10.902;2023-05-19T00:43:33;8.50;;;4.47;;
30697;SDS011;17448;47.200;10.902;2023-05-19T00:45:59;9.35;;;5.18;;
30697;SDS011;17448;47.200;10.902;2023-05-19T00:48:25;6.50;;;4.13;;
30697;SDS011;17448;47.200;10.902;2023-05-19T00:50:52;8.63;;;4.20;;
30697;SDS011;17448;47.200;10.902;2023-05-19T00:53:19;7.25;;;4.35;;
30697;SDS011;17448;47.200;10.902;2023-05-19T00:55:46;7.65;;;4.65;;
30697;SDS011;17448;47.200;10.902;2023-05-19T00:58:12;8.95;;;4.80;;
30697;SDS011;17448;47.200;10.902;2023-05-19T01:00:39;8.13;;;4.70;;
30697;SDS011;17448;47.200;10.902;2023-05-19T01:03:06;6.03;;;4.30;;
30697;SDS011;17448;47.200;10.902;2023-05-19T01:05:38;8.93;;;4.85;;
30697;SDS011;17448;47.200;10.902;2023-05-19T01:08:08;9.77;;;4.25;;
30697;SDS011;17448;47.200;10.902;2023-05-19T01:10:35;8.32;;;4.40;;
30697;SDS011;17448;47.200;10.902;2023-05-19T01:13:03;8.23;;;4.38;;
30697;SDS011;17448;47.200;10.902;2023-05-19T01:15:31;8.18;;;4.50;;
30697;SDS011;17448;47.200;10.902;2023-05-19T01:18:00;10.30;;;4.30;;
30697;SDS011;17448;47.200;10.902;2023-05-19T01:20:43;10.15;;;4.50;;
30697;SDS011;17448;47.200;10.902;2023-05-19T01:23:22;6.55;;;4.57;;
30697;SDS011;17448;47.200;10.902;2023-05-19T01:31:03;7.00;;;4.40;;
30697;SDS011;17448;47.200;10.902;2023-05-19T01:33:31;6.15;;;3.90;;
30697;SDS011;17448;47.200;10.902;2023-05-19T01:35:58;9.88;;;4.82;;
30697;SDS011;17448;47.200;10.902;2023-05-19T01:38:26;12.52;;;4.63;;
30697;SDS011;17448;47.200;10.902;2023-05-19T01:40:53;7.65;;;4.88;;
30697;SDS011;17448;47.200;10.902;2023-05-19T01:43:22;9.35;;;4.80;;
30697;SDS011;17448;47.200;10.902;2023-05-19T01:45:49;8.25;;;5.00;;
30697;SDS011;17448;47.200;10.902;2023-05-19T01:48:15;6.90;;;4.85;;
30697;SDS011;17448;47.200;10.902;2023-05-19T01:50:43;7.40;;;4.65;;
30697;SDS011;17448;47.200;10.902;2023-05-19T01:53:10;9.63;;;4.32;;
30697;SDS011;17448;47.200;10.902;2023-05-19T01:55:41;7.78;;;4.57;;
30697;SDS011;17448;47.200;10.902;2023-05-19T02:00:44;10.40;;;4.90;;
30697;SDS011;17448;47.200;10.902;2023-05-19T02:10:54;6.40;;;4.47;;
30697;SDS011;17448;47.200;10.902;2023-05-19T02:13:23;8.75;;;4.70;;
30697;SDS011;17448;47.200;10.902;2023-05-19T02:15:51;8.48;;;4.50;;
30697;SDS011;17448;47.200;10.902;2023-05-19T02:18:20;9.32;;;4.78;;
30697;SDS011;17448;47.200;10.902;2023-05-19T02:20:49;11.88;;;5.03;;
30697;SDS011;17448;47.200;10.902;2023-05-19T02:23:18;9.18;;;4.80;;
30697;SDS011;17448;47.200;10.902;2023-05-19T02:25:44;6.00;;;4.53;;
30697;SDS011;17448;47.200;10.902;2023-05-19T02:28:11;7.75;;;4.55;;
30697;SDS011;17448;47.200;10.902;2023-05-19T02:30:37;9.25;;;4.75;;
30697;SDS011;17448;47.200;10.902;2023-05-19T02:33:03;8.50;;;4.93;;
30697;SDS011;17448;47.200;10.902;2023-05-19T02:35:30;7.93;;;4.95;;
30697;SDS011;17448;47.200;10.902;2023-05-19T02:37:57;6.93;;;4.57;;
30697;SDS011;17448;47.200;10.902;2023-05-19T02:40:24;10.52;;;4.93;;
30697;SDS011;17448;47.200;10.902;2023-05-19T02:42:50;8.30;;;4.82;;
30697;SDS011;17448;47.200;10.902;2023-05-19T02:45:17;15.35;;;5.18;;
30697;SDS011;17448;47.200;10.902;2023-05-19T02:47:43;9.02;;;5.20;;
30697;SDS011;17448;47.200;10.902;2023-05-19T02:50:10;9.98;;;4.82;;
30697;SDS011;17448;47.200;10.902;2023-05-19T02:52:36;6.07;;;4.63;;
30697;SDS011;17448;47.200;10.902;2023-05-19T02:55:02;8.98;;;4.90;;
30697;SDS011;17448;47.200;10.902;2023-05-19T02:57:28;12.57;;;5.68;;
30697;SDS011;17448;47.200;10.902;2023-05-19T02:59:55;7.55;;;5.03;;
30697;SDS011;17448;47.200;10.902;2023-05-19T03:02:22;12.20;;;5.05;;
30697;SDS011;17448;47.200;10.902;2023-05-19T03:04:48;9.73;;;5.63;;
30697;SDS011;17448;47.200;10.902;2023-05-19T03:07:15;10.32;;;5.88;;
30697;SDS011;17448;47.200;10.902;2023-05-19T03:09:41;7.45;;;5.75;;
30697;SDS011;17448;47.200;10.902;2023-05-19T03:12:07;12.07;;;5.40;;
30697;SDS011;17448;47.200;10.902;2023-05-19T03:14:34;9.30;;;4.97;;
30697;SDS011;17448;47.200;10.902;2023-05-19T03:17:01;9.23;;;5.40;;
30697;SDS011;17448;47.200;10.902;2023-05-19T03:19:28;8.73;;;5.43;;
30697;SDS011;17448;47.200;10.902;2023-05-19T03:21:56;9.10;;;5.82;;
30697;SDS011;17448;47.200;10.902;2023-05-19T03:24:22;8.85;;;5.25;;
30697;SDS011;17448;47.200;10.902;2023-05-19T03:26:49;9.27;;;5.95;;
30697;SDS011;17448;47.200;10.902;2023-05-19T03:29:15;7.47;;;5.15;;
30697;SDS011;17448;47.200;10.902;2023-05-19T03:31:42;9.90;;;5.38;;
30697;SDS011;17448;47.200;10.902;2023-05-19T03:34:08;9.38;;;5.53;;
30697;SDS011;17448;47.200;10.902;2023-05-19T03:36:35;9.15;;;5.55;;
30697;SDS011;17448;47.200;10.902;2023-05-19T03:39:08;9.25;;;5.68;;
30697;SDS011;17448;47.200;10.902;2023-05-19T03:41:35;10.98;;;5.55;;
30697;SDS011;17448;47.200;10.902;2023-05-19T03:44:02;9.55;;;5.88;;
30697;SDS011;17448;47.200;10.902;2023-05-19T03:46:28;8.95;;;5.53;;
30697;SDS011;17448;47.200;10.902;2023-05-19T03:49:17;9.60;;;6.05;;
30697;SDS011;17448;47.200;10.902;2023-05-19T03:52:13;10.60;;;6.15;;
30697;SDS011;17448;47.200;10.902;2023-05-19T03:54:56;8.57;;;5.93;;
30697;SDS011;17448;47.200;10.902;2023-05-19T03:57:23;12.02;;;6.50;;
30697;SDS011;17448;47.200;10.902;2023-05-19T03:59:49;10.27;;;6.32;;
30697;SDS011;17448;47.200;10.902;2023-05-19T04:02:15;11.60;;;6.78;;
30697;SDS011;17448;47.200;10.902;2023-05-19T04:04:41;8.93;;;6.88;;
30697;SDS011;17448;47.200;10.902;2023-05-19T04:07:09;7.57;;;5.85;;
30697;SDS011;17448;47.200;10.902;2023-05-19T04:09:35;10.02;;;7.00;;
30697;SDS011;17448;47.200;10.902;2023-05-19T04:12:02;9.30;;;6.20;;
30697;SDS011;17448;47.200;10.902;2023-05-19T04:14:28;10.75;;;6.55;;
30697;SDS011;17448;47.200;10.902;2023-05-19T04:16:55;11.73;;;6.60;;
30697;SDS011;17448;47.200;10.902;2023-05-19T04:19:22;13.93;;;7.13;;
30697;SDS011;17448;47.200;10.902;2023-05-19T04:21:48;7.47;;;6.13;;
30697;SDS011;17448;47.200;10.902;2023-05-19T04:24:14;10.63;;;6.45;;
30697;SDS011;17448;47.200;10.902;2023-05-19T04:26:40;11.63;;;7.55;;
30697;SDS011;17448;47.200;10.902;2023-05-19T04:29:10;11.85;;;6.88;;
30697;SDS011;17448;47.200;10.902;2023-05-19T04:31:41;12.40;;;6.85;;
30697;SDS011;17448;47.200;10.902;2023-05-19T04:34:08;8.55;;;6.18;;
30697;SDS011;17448;47.200;10.902;2023-05-19T04:36:35;12.85;;;6.70;;
30697;SDS011;17448;47.200;10.902;2023-05-19T04:39:02;12.48;;;7.10;;
30697;SDS011;17448;47.200;10.902;2023-05-19T04:41:32;17.98;;;6.60;;
30697;SDS011;17448;47.200;10.902;2023-05-19T04:44:00;13.25;;;6.50;;
30697;SDS011;17448;47.200;10.902;2023-05-19T04:46:27;11.70;;;6.78;;
30697;SDS011;17448;47.200;10.902;2023-05-19T04:48:54;10.13;;;6.35;;
30697;SDS011;17448;47.200;10.902;2023-05-19T04:51:22;12.93;;;7.03;;
30697;SDS011;17448;47.200;10.902;2023-05-19T04:53:56;9.88;;;6.63;;
30697;SDS011;17448;47.200;10.902;2023-05-19T04:56:22;10.90;;;6.93;;
30697;SDS011;17448;47.200;10.902;2023-05-19T04:58:49;10.85;;;6.65;;
30697;SDS011;17448;47.200;10.902;2023-05-19T05:01:15;12.05;;;6.88;;
30697;SDS011;17448;47.200;10.902;2023-05-19T05:03:41;7.95;;;6.35;;
30697;SDS011;17448;47.200;10.902;2023-05-19T05:06:09;15.13;;;6.93;;
30697;SDS011;17448;47.200;10.902;2023-05-19T05:08:36;12.02;;;7.47;;
30697;SDS011;17448;47.200;10.902;2023-05-19T05:11:04;13.02;;;7.93;;
30697;SDS011;17448;47.200;10.902;2023-05-19T05:13:32;12.00;;;7.32;;
30697;SDS011;17448;47.200;10.902;2023-05-19T05:15:59;16.23;;;7.70;;
30697;SDS011;17448;47.200;10.902;2023-05-19T05:18:25;10.27;;;7.45;;
30697;SDS011;17448;47.200;10.902;2023-05-19T05:20:51;10.68;;;7.47;;
30697;SDS011;17448;47.200;10.902;2023-05-19T05:23:18;10.63;;;7.35;;
30697;SDS011;17448;47.200;10.902;2023-05-19T05:25:51;14.30;;;7.95;;
30697;SDS011;17448;47.200;10.902;2023-05-19T05:28:20;15.40;;;7.97;;
30697;SDS011;17448;47.200;10.902;2023-05-19T05:30:47;12.05;;;7.30;;
30697;SDS011;17448;47.200;10.902;2023-05-19T05:33:20;12.57;;;7.03;;
30697;SDS011;17448;47.200;10.902;2023-05-19T05:35:49;13.77;;;7.43;;
30697;SDS011;17448;47.200;10.902;2023-05-19T05:38:19;12.32;;;6.90;;
30697;SDS011;17448;47.200;10.902;2023-05-19T05:40:47;13.93;;;7.72;;
30697;SDS011;17448;47.200;10.902;2023-05-19T05:43:13;15.73;;;7.10;;
30697;SDS011;17448;47.200;10.902;2023-05-19T05:45:45;9.48;;;7.20;;
30697;SDS011;17448;47.200;10.902;2023-05-19T05:48:11;12.77;;;7.28;;
30697;SDS011;17448;47.200;10.902;2023-05-19T05:50:38;12.77;;;8.43;;
30697;SDS011;17448;47.200;10.902;2023-05-19T05:53:05;11.80;;;7.38;;
30697;SDS011;17448;47.200;10.902;2023-05-19T05:55:35;12.27;;;7.43;;
30697;SDS011;17448;47.200;10.902;2023-05-19T05:58:03;12.50;;;7.43;;
30697;SDS011;17448;47.200;10.902;2023-05-19T06:00:29;12.45;;;7.15;;
30697;SDS011;17448;47.200;10.902;2023-05-19T06:02:55;13.65;;;7.57;;
30697;SDS011;17448;47.200;10.902;2023-05-19T06:05:24;9.27;;;7.30;;
30697;SDS011;17448;47.200;10.902;2023-05-19T06:07:52;10.43;;;7.13;;
30697;SDS011;17448;47.200;10.902;2023-05-19T06:10:23;13.18;;;7.50;;
30697;SDS011;17448;47.200;10.902;2023-05-19T06:12:49;12.20;;;7.40;;
30697;SDS011;17448;47.200;10.902;2023-05-19T06:15:16;10.00;;;7.15;;
30697;SDS011;17448;47.200;10.902;2023-05-19T06:17:49;11.43;;;7.65;;
30697;SDS011;17448;47.200;10.902;2023-05-19T06:20:16;12.35;;;7.35;;
30697;SDS011;17448;47.200;10.902;2023-05-19T06:22:42;11.15;;;7.05;;
30697;SDS011;17448;47.200;10.902;2023-05-19T06:25:09;9.32;;;7.20;;
30697;SDS011;17448;47.200;10.902;2023-05-19T06:27:35;13.02;;;7.15;;
30697;SDS011;17448;47.200;10.902;2023-05-19T06:30:02;11.38;;;7.55;;
30697;SDS011;17448;47.200;10.902;2023-05-19T06:32:34;24.17;;;7.53;;
30697;SDS011;17448;47.200;10.902;2023-05-19T06:35:00;9.93;;;6.90;;
30697;SDS011;17448;47.200;10.902;2023-05-19T06:37:26;12.23;;;6.93;;
30697;SDS011;17448;47.200;10.902;2023-05-19T06:39:54;12.32;;;7.32;;
30697;SDS011;17448;47.200;10.902;2023-05-19T06:42:20;13.88;;;6.55;;
30697;SDS011;17448;47.200;10.902;2023-05-19T06:45:13;8.90;;;6.43;;
30697;SDS011;17448;47.200;10.902;2023-05-19T06:47:39;7.47;;;6.47;;
30697;SDS011;17448;47.200;10.902;2023-05-19T06:50:07;10.25;;;6.68;;
30697;SDS011;17448;47.200;10.902;2023-05-19T06:52:36;10.18;;;6.50;;
30697;SDS011;17448;47.200;10.902;2023-05-19T06:55:02;11.05;;;6.25;;
30697;SDS011;17448;47.200;10.902;2023-05-19T06:57:30;9.20;;;6.35;;
30697;SDS011;17448;47.200;10.902;2023-05-19T07:00:01;13.35;;;7.13;;
30697;SDS011;17448;47.200;10.902;2023-05-19T07:02:28;10.70;;;6.53;;
30697;SDS011;17448;47.200;10.902;2023-05-19T07:04:55;11.60;;;6.03;;
30697;SDS011;17448;47.200;10.902;2023-05-19T07:07:22;11.60;;;6.30;;
30697;SDS011;17448;47.200;10.902;2023-05-19T07:09:49;11.35;;;6.97;;
30697;SDS011;17448;47.200;10.902;2023-05-19T07:12:16;10.35;;;6.50;;
30697;SDS011;17448;47.200;10.902;2023-05-19T07:14:42;8.93;;;5.70;;
30697;SDS011;17448;47.200;10.902;2023-05-19T07:17:09;10.02;;;6.35;;
30697;SDS011;17448;47.200;10.902;2023-05-19T07:19:41;9.52;;;6.45;;
30697;SDS011;17448;47.200;10.902;2023-05-19T07:22:07;10.38;;;5.95;;
30697;SDS011;17448;47.200;10.902;2023-05-19T07:24:33;8.18;;;6.20;;
30697;SDS011;17448;47.200;10.902;2023-05-19T07:27:00;9.70;;;5.72;;
30697;SDS011;17448;47.200;10.902;2023-05-19T07:29:26;11.35;;;6.55;;
30697;SDS011;17448;47.200;10.902;2023-05-19T07:31:52;8.40;;;5.93;;
30697;SDS011;17448;47.200;10.902;2023-05-19T07:34:22;10.57;;;6.15;;
30697;SDS011;17448;47.200;10.902;2023-05-19T07:36:48;11.65;;;5.75;;
30697;SDS011;17448;47.200;10.902;2023-05-19T07:39:16;9.40;;;5.43;;
30697;SDS011;17448;47.200;10.902;2023-05-19T07:41:42;9.07;;;6.07;;
30697;SDS011;17448;47.200;10.902;2023-05-19T07:44:08;8.95;;;5.43;;
30697;SDS011;17448;47.200;10.902;2023-05-19T07:46:38;9.35;;;5.65;;
30697;SDS011;17448;47.200;10.902;2023-05-19T07:49:04;8.18;;;5.38;;
30697;SDS011;17448;47.200;10.902;2023-05-19T07:51:30;7.07;;;5.18;;
30697;SDS011;17448;47.200;10.902;2023-05-19T07:53:57;7.80;;;5.53;;
30697;SDS011;17448;47.200;10.902;2023-05-19T07:56:23;8.30;;;4.78;;
30697;SDS011;17448;47.200;10.902;2023-05-19T07:58:49;7.95;;;5.00;;
30697;SDS011;17448;47.200;10.902;2023-05-19T08:01:15;9.55;;;5.22;;
30697;SDS011;17448;47.200;10.902;2023-05-19T08:03:42;8.32;;;5.55;;
30697;SDS011;17448;47.200;10.902;2023-05-19T08:06:08;7.63;;;5.05;;
30697;SDS011;17448;47.200;10.902;2023-05-19T08:08:34;8.82;;;5.22;;
30697;SDS011;17448;47.200;10.902;2023-05-19T08:11:01;11.10;;;4.50;;
30697;SDS011;17448;47.200;10.902;2023-05-19T08:13:29;12.00;;;5.40;;
30697;SDS011;17448;47.200;10.902;2023-05-19T08:15:55;9.57;;;4.78;;
30697;SDS011;17448;47.200;10.902;2023-05-19T08:18:24;12.88;;;5.53;;
30697;SDS011;17448;47.200;10.902;2023-05-19T08:20:50;10.88;;;5.18;;
30697;SDS011;17448;47.200;10.902;2023-05-19T08:23:16;8.38;;;5.15;;
30697;SDS011;17448;47.200;10.902;2023-05-19T08:25:43;8.18;;;5.30;;
30697;SDS011;17448;47.200;10.902;2023-05-19T08:28:09;6.90;;;4.93;;
30697;SDS011;17448;47.200;10.902;2023-05-19T08:30:35;8.80;;;4.53;;
30697;SDS011;17448;47.200;10.902;2023-05-19T08:33:02;5.55;;;4.88;;
30697;SDS011;17448;47.200;10.902;2023-05-19T08:35:28;8.50;;;4.63;;
30697;SDS011;17448;47.200;10.902;2023-05-19T08:37:54;7.70;;;4.32;;
30697;SDS011;17448;47.200;10.902;2023-05-19T08:40:21;7.68;;;5.07;;
30697;SDS011;17448;47.200;10.902;2023-05-19T08:42:49;8.75;;;4.78;;
30697;SDS011;17448;47.200;10.902;2023-05-19T08:45:16;7.22;;;4.57;;
30697;SDS011;17448;47.200;10.902;2023-05-19T08:47:44;7.05;;;4.38;;
30697;SDS011;17448;47.200;10.902;2023-05-19T08:50:15;9.35;;;4.70;;
30697;SDS011;17448;47.200;10.902;2023-05-19T08:52:52;8.77;;;4.85;;
30697;SDS011;17448;47.200;10.902;2023-05-19T08:55:41;5.22;;;4.20;;
30697;SDS011;17448;47.200;10.902;2023-05-19T08:58:09;6.63;;;4.53;;
30697;SDS011;17448;47.200;10.902;2023-05-19T09:00:36;6.13;;;4.25;;
30697;SDS011;17448;47.200;10.902;2023-05-19T09:03:03;6.18;;;4.20;;
30697;SDS011;17448;47.200;10.902;2023-05-19T09:05:29;5.80;;;4.80;;
30697;SDS011;17448;47.200;10.902;2023-05-19T09:07:57;6.10;;;4.35;;
30697;SDS011;17448;47.200;10.902;2023-05-19T09:10:26;8.95;;;3.85;;
30697;SDS011;17448;47.200;10.902;2023-05-19T09:12:53;5.20;;;4.22;;
30697;SDS011;17448;47.200;10.902;2023-05-19T09:15:19;8.20;;;5.22;;
30697;SDS011;17448;47.200;10.902;2023-05-19T09:17:46;9.98;;;4.97;;
30697;SDS011;17448;47.200;10.902;2023-05-19T09:20:12;7.25;;;4.25;;
30697;SDS011;17448;47.200;10.902;2023-05-19T09:22:43;5.60;;;4.30;;
30697;SDS011;17448;47.200;10.902;2023-05-19T09:28:04;5.82;;;3.88;;
30697;SDS011;17448;47.200;10.902;2023-05-19T09:30:33;6.18;;;4.13;;
30697;SDS011;17448;47.200;10.902;2023-05-19T09:33:00;7.95;;;4.65;;
30697;SDS011;17448;47.200;10.902;2023-05-19T09:35:28;5.05;;;3.85;;
30697;SDS011;17448;47.200;10.902;2023-05-19T09:37:55;9.65;;;4.00;;
30697;SDS011;17448;47.200;10.902;2023-05-19T09:40:22;6.85;;;3.80;;
30697;SDS011;17448;47.200;10.902;2023-05-19T09:42:53;8.48;;;4.07;;
30697;SDS011;17448;47.200;10.902;2023-05-19T09:45:20;6.85;;;4.35;;
30697;SDS011;17448;47.200;10.902;2023-05-19T09:47:46;7.82;;;4.15;;
30697;SDS011;17448;47.200;10.902;2023-05-19T09:50:13;4.63;;;3.45;;
30697;SDS011;17448;47.200;10.902;2023-05-19T09:52:42;4.93;;;3.67;;
30697;SDS011;17448;47.200;10.902;2023-05-19T09:55:09;7.38;;;3.50;;
30697;SDS011;17448;47.200;10.902;2023-05-19T09:57:39;6.03;;;3.60;;
30697;SDS011;17448;47.200;10.902;2023-05-19T10:00:09;6.70;;;4.05;;
30697;SDS011;17448;47.200;10.902;2023-05-19T10:05:14;7.20;;;3.78;;
30697;SDS011;17448;47.200;10.902;2023-05-19T10:07:44;8.50;;;3.40;;
30697;SDS011;17448;47.200;10.902;2023-05-19T10:10:14;5.50;;;3.33;;
30697;SDS011;17448;47.200;10.902;2023-05-19T10:12:40;6.40;;;3.72;;
30697;SDS011;17448;47.200;10.902;2023-05-19T10:15:10;4.68;;;3.83;;
30697;SDS011;17448;47.200;10.902;2023-05-19T10:17:40;6.75;;;4.22;;
30697;SDS011;17448;47.200;10.902;2023-05-19T10:20:14;5.65;;;3.35;;
30697;SDS011;17448;47.200;10.902;2023-05-19T10:22:45;6.70;;;3.88;;
30697;SDS011;17448;47.200;10.902;2023-05-19T10:25:13;9.13;;;3.95;;
30697;SDS011;17448;47.200;10.902;2023-05-19T10:27:54;6.13;;;3.78;;
30697;SDS011;17448;47.200;10.902;2023-05-19T10:30:26;4.28;;;3.30;;
30697;SDS011;17448;47.200;10.902;2023-05-19T10:32:53;6.75;;;3.88;;
30697;SDS011;17448;47.200;10.902;2023-05-19T10:35:25;4.68;;;3.67;;
30697;SDS011;17448;47.200;10.902;2023-05-19T10:38:06;4.18;;;2.88;;
30697;SDS011;17448;47.200;10.902;2023-05-19T10:43:36;3.75;;;3.05;;
30697;SDS011;17448;47.200;10.902;2023-05-19T10:46:08;4.80;;;3.03;;
30697;SDS011;17448;47.200;10.902;2023-05-19T10:48:35;4.78;;;3.40;;
30697;SDS011;17448;47.200;10.902;2023-05-19T10:51:06;5.32;;;3.42;;
30697;SDS011;17448;47.200;10.902;2023-05-19T10:53:39;4.57;;;3.60;;
30697;SDS011;17448;47.200;10.902;2023-05-19T10:56:06;5.82;;;4.15;;
30697;SDS011;17448;47.200;10.902;2023-05-19T11:01:12;4.78;;;3.40;;
30697;SDS011;17448;47.200;10.902;2023-05-19T11:03:47;5.47;;;3.97;;
30697;SDS011;17448;47.200;10.902;2023-05-19T11:08:50;4.50;;;3.17;;
30697;SDS011;17448;47.200;10.902;2023-05-19T11:11:18;3.90;;;3.05;;
30697;SDS011;17448;47.200;10.902;2023-05-19T11:13:46;4.25;;;3.15;;
30697;SDS011;17448;47.200;10.902;2023-05-19T11:16:25;4.00;;;3.20;;
30697;SDS011;17448;47.200;10.902;2023-05-19T11:18:52;5.53;;;3.47;;
30697;SDS011;17448;47.200;10.902;2023-05-19T11:21:20;3.95;;;3.08;;
30697;SDS011;17448;47.200;10.902;2023-05-19T11:23:51;4.63;;;3.15;;
30697;SDS011;17448;47.200;10.902;2023-05-19T11:26:38;6.47;;;2.92;;
30697;SDS011;17448;47.200;10.902;2023-05-19T11:29:09;5.15;;;2.85;;
30697;SDS011;17448;47.200;10.902;2023-05-19T11:31:38;4.63;;;3.00;;
30697;SDS011;17448;47.200;10.902;2023-05-19T11:34:06;3.78;;;2.78;;
30697;SDS011;17448;47.200;10.902;2023-05-19T11:36:34;4.90;;;2.78;;
30697;SDS011;17448;47.200;10.902;2023-05-19T11:39:04;4.80;;;3.08;;
30697;SDS011;17448;47.200;10.902;2023-05-19T11:41:37;8.30;;;3.10;;
30697;SDS011;17448;47.200;10.902;2023-05-19T11:44:09;4.18;;;3.17;;
30697;SDS011;17448;47.200;10.902;2023-05-19T11:46:36;4.78;;;2.95;;
30697;SDS011;17448;47.200;10.902;2023-05-19T11:49:04;4.70;;;2.60;;
30697;SDS011;17448;47.200;10.902;2023-05-19T11:51:31;4.53;;;2.80;;
30697;SDS011;17448;47.200;10.902;2023-05-19T11:53:58;5.22;;;3.00;;
30697;SDS011;17448;47.200;10.902;2023-05-19T11:56:24;5.63;;;2.90;;
30697;SDS011;17448;47.200;10.902;2023-05-19T11:58:51;2.80;;;2.50;;
30697;SDS011;17448;47.200;10.902;2023-05-19T12:01:22;4.35;;;2.50;;
30697;SDS011;17448;47.200;10.902;2023-05-19T12:03:53;3.40;;;2.53;;
30697;SDS011;17448;47.200;10.902;2023-05-19T12:06:20;4.22;;;2.25;;
30697;SDS011;17448;47.200;10.902;2023-05-19T12:08:50;4.22;;;2.88;;
30697;SDS011;17448;47.200;10.902;2023-05-19T12:11:20;3.38;;;2.58;;
30697;SDS011;17448;47.200;10.902;2023-05-19T12:13:48;2.35;;;2.15;;
30697;SDS011;17448;47.200;10.902;2023-05-19T12:16:19;5.45;;;2.47;;
30697;SDS011;17448;47.200;10.902;2023-05-19T12:18:48;2.70;;;2.28;;
30697;SDS011;17448;47.200;10.902;2023-05-19T12:21:17;3.97;;;2.10;;
30697;SDS011;17448;47.200;10.902;2023-05-19T12:23:44;4.25;;;2.42;;
30697;SDS011;17448;47.200;10.902;2023-05-19T12:26:10;2.13;;;1.88;;
30697;SDS011;17448;47.200;10.902;2023-05-19T12:28:36;4.38;;;2.30;;
30697;SDS011;17448;47.200;10.902;2023-05-19T12:31:03;2.97;;;1.92;;
30697;SDS011;17448;47.200;10.902;2023-05-19T12:33:31;3.63;;;1.90;;
30697;SDS011;17448;47.200;10.902;2023-05-19T12:35:57;2.15;;;1.95;;
30697;SDS011;17448;47.200;10.902;2023-05-19T12:38:26;2.10;;;1.80;;
30697;SDS011;17448;47.200;10.902;2023-05-19T12:40:52;2.22;;;1.98;;
30697;SDS011;17448;47.200;10.902;2023-05-19T12:43:21;3.20;;;1.83;;
30697;SDS011;17448;47.200;10.902;2023-05-19T12:45:48;2.58;;;2.25;;
30697;SDS011;17448;47.200;10.902;2023-05-19T12:48:14;4.18;;;2.03;;
30697;SDS011;17448;47.200;10.902;2023-05-19T12:50:41;5.57;;;2.10;;
30697;SDS011;17448;47.200;10.902;2023-05-19T12:53:12;3.33;;;2.03;;
30697;SDS011;17448;47.200;10.902;2023-05-19T12:55:40;4.95;;;2.05;;
30697;SDS011;17448;47.200;10.902;2023-05-19T12:58:11;2.25;;;1.77;;
30697;SDS011;17448;47.200;10.902;2023-05-19T13:00:41;2.15;;;1.80;;
30697;SDS011;17448;47.200;10.902;2023-05-19T13:03:13;4.25;;;1.77;;
30697;SDS011;17448;47.200;10.902;2023-05-19T13:05:40;2.33;;;1.60;;
30697;SDS011;17448;47.200;10.902;2023-05-19T13:08:17;12.18;;;7.22;;
30697;SDS011;17448;47.200;10.902;2023-05-19T13:10:44;4.15;;;2.08;;
30697;SDS011;17448;47.200;10.902;2023-05-19T13:13:11;2.22;;;1.65;;
30697;SDS011;17448;47.200;10.902;2023-05-19T13:15:39;2.10;;;1.90;;
30697;SDS011;17448;47.200;10.902;2023-05-19T13:18:06;2.97;;;1.90;;
30697;SDS011;17448;47.200;10.902;2023-05-19T13:20:33;4.15;;;2.17;;
30697;SDS011;17448;47.200;10.902;2023-05-19T13:22:59;4.70;;;2.55;;
30697;SDS011;17448;47.200;10.902;2023-05-19T13:25:25;2.35;;;2.10;;
30697;SDS011;17448;47.200;10.902;2023-05-19T13:27:52;4.57;;;2.10;;
30697;SDS011;17448;47.200;10.902;2023-05-19T13:30:23;5.63;;;2.67;;
30697;SDS011;17448;47.200;10.902;2023-05-19T13:32:49;5.68;;;2.83;;
30697;SDS011;17448;47.200;10.902;2023-05-19T13:35:16;4.65;;;2.38;;
30697;SDS011;17448;47.200;10.902;2023-05-19T13:37:42;9.05;;;2.67;;
30697;SDS011;17448;47.200;10.902;2023-05-19T13:40:09;3.95;;;2.67;;
30697;SDS011;17448;47.200;10.902;2023-05-19T13:42:35;4.13;;;2.47;;
30697;SDS011;17448;47.200;10.902;2023-05-19T13:45:02;5.43;;;2.88;;
30697;SDS011;17448;47.200;10.902;2023-05-19T13:47:28;3.20;;;2.42;;
30697;SDS011;17448;47.200;10.902;2023-05-19T13:49:54;5.68;;;2.58;;
30697;SDS011;17448;47.200;10.902;2023-05-19T13:52:21;3.13;;;2.40;;
30697;SDS011;17448;47.200;10.902;2023-05-19T13:54:47;3.28;;;2.80;;
30697;SDS011;17448;47.200;10.902;2023-05-19T13:57:14;3.47;;;2.88;;
30697;SDS011;17448;47.200;10.902;2023-05-19T13:59:41;4.53;;;2.28;;
30697;SDS011;17448;47.200;10.902;2023-05-19T14:02:07;7.15;;;2.80;;
30697;SDS011;17448;47.200;10.902;2023-05-19T14:04:37;4.53;;;2.88;;
30697;SDS011;17448;47.200;10.902;2023-05-19T14:07:06;3.55;;;2.25;;
30697;SDS011;17448;47.200;10.902;2023-05-19T14:09:34;6.75;;;2.30;;
30697;SDS011;17448;47.200;10.902;2023-05-19T14:12:00;4.97;;;3.17;;
30697;SDS011;17448;47.200;10.902;2023-05-19T14:14:27;5.10;;;2.60;;
30697;SDS011;17448;47.200;10.902;2023-05-19T14:16:53;2.95;;;2.55;;
30697;SDS011;17448;47.200;10.902;2023-05-19T14:19:19;5.22;;;2.85;;
30697;SDS011;17448;47.200;10.902;2023-05-19T14:21:48;3.22;;;2.53;;
30697;SDS011;17448;47.200;10.902;2023-05-19T14:24:14;4.25;;;2.60;;
30697;SDS011;17448;47.200;10.902;2023-05-19T14:26:41;3.40;;;2.75;;
30697;SDS011;17448;47.200;10.902;2023-05-19T14:29:07;3.22;;;2.35;;
30697;SDS011;17448;47.200;10.902;2023-05-19T14:31:33;6.07;;;2.40;;
30697;SDS011;17448;47.200;10.902;2023-05-19T14:33:59;5.15;;;2.50;;
30697;SDS011;17448;47.200;10.902;2023-05-19T14:36:25;3.92;;;2.80;;
30697;SDS011;17448;47.200;10.902;2023-05-19T14:38:52;7.30;;;2.70;;
30697;SDS011;17448;47.200;10.902;2023-05-19T14:41:18;5.60;;;2.78;;
30697;SDS011;17448;47.200;10.902;2023-05-19T14:43:45;6.63;;;2.55;;
30697;SDS011;17448;47.200;10.902;2023-05-19T14:46:11;2.35;;;2.05;;
30697;SDS011;17448;47.200;10.902;2023-05-19T14:48:38;3.90;;;2.47;;
30697;SDS011;17448;47.200;10.902;2023-05-19T14:51:04;2.63;;;2.25;;
30697;SDS011;17448;47.200;10.902;2023-05-19T14:53:30;4.57;;;2.75;;
30697;SDS011;17448;47.200;10.902;2023-05-19T14:55:59;3.15;;;2.65;;
30697;SDS011;17448;47.200;10.902;2023-05-19T14:58:25;7.78;;;2.72;;
30697;SDS011;17448;47.200;10.902;2023-05-19T15:00:51;7.10;;;2.55;;
30697;SDS011;17448;47.200;10.902;2023-05-19T15:03:17;6.43;;;3.45;;
30697;SDS011;17448;47.200;10.902;2023-05-19T15:05:44;3.20;;;2.55;;